createdAt,value
2023-03-28T00:00:41.787Z,7.97
2023-03-28T00:03:08.753Z,7.53
2023-03-28T00:05:40.186Z,7.70
2023-03-28T00:08:07.223Z,6.18
2023-03-28T00:10:34.324Z,6.38
2023-03-28T00:13:01.150Z,6.88
2023-03-28T00:15:28.704Z,6.80
2023-03-28T00:17:55.468Z,6.57
2023-03-28T00:20:22.273Z,7.53
2023-03-28T00:22:49.467Z,6.20
2023-03-28T00:25:16.293Z,5.07
2023-03-28T00:27:43.066Z,6.57
2023-03-28T00:30:11.075Z,6.65
2023-03-28T00:32:38.083Z,6.82
2023-03-28T00:35:05.353Z,7.40
2023-03-28T00:37:34.499Z,6.35
2023-03-28T00:40:01.699Z,6.85
2023-03-28T00:42:28.441Z,4.90
2023-03-28T00:44:57.209Z,5.72
2023-03-28T00:47:43.893Z,5.03
2023-03-28T00:50:20.350Z,5.35
2023-03-28T00:53:04.605Z,5.90
2023-03-28T00:56:06.838Z,5.90
2023-03-28T00:58:35.572Z,5.65
2023-03-28T01:01:02.440Z,5.15
2023-03-28T01:03:34.145Z,5.35
2023-03-28T01:06:06.467Z,5.50
2023-03-28T01:08:38.085Z,6.07
2023-03-28T01:11:06.287Z,6.00
2023-03-28T01:13:38.213Z,6.18
2023-03-28T01:16:07.207Z,6.20
2023-03-28T01:18:35.772Z,6.22
2023-03-28T01:21:05.877Z,7.05
2023-03-28T01:23:52.593Z,6.50
2023-03-28T01:27:12.429Z,8.07
2023-03-28T01:29:51.152Z,5.90
2023-03-28T01:32:17.868Z,6.57
2023-03-28T01:34:53.269Z,5.72
2023-03-28T01:37:41.877Z,6.80
2023-03-28T01:40:43.822Z,6.50
2023-03-28T01:43:32.920Z,6.78
2023-03-28T01:46:16.116Z,8.02
2023-03-28T01:48:48.609Z,9.20
2023-03-28T01:51:29.142Z,10.75
2023-03-28T01:54:18.091Z,8.43
2023-03-28T01:57:25.902Z,8.20
2023-03-28T02:00:15.850Z,8.18
2023-03-28T02:02:51.207Z,9.05
2023-03-28T02:05:22.393Z,8.07
2023-03-28T02:07:52.240Z,8.07
2023-03-28T02:10:22.870Z,8.82
2023-03-28T02:12:57.917Z,10.18
2023-03-28T02:15:26.397Z,11.52
2023-03-28T02:18:02.536Z,11.25
2023-03-28T02:20:33.751Z,10.85
2023-03-28T02:23:15.288Z,11.45
2023-03-28T02:25:43.343Z,11.15
2023-03-28T02:28:11.663Z,11.48
2023-03-28T02:30:40.161Z,11.48
2023-03-28T02:33:28.072Z,11.95
2023-03-28T02:36:06.940Z,11.55
2023-03-28T02:38:59.535Z,10.30
2023-03-28T02:41:51.572Z,11.02
2023-03-28T02:44:36.450Z,10.18
2023-03-28T02:47:17.793Z,9.20
2023-03-28T02:49:56.965Z,10.00
2023-03-28T02:52:58.663Z,11.32
2023-03-28T02:55:33.658Z,11.38
2023-03-28T02:58:18.366Z,12.00
2023-03-28T03:00:45.129Z,10.90
2023-03-28T03:03:11.930Z,9.43
2023-03-28T03:05:38.838Z,8.75
2023-03-28T03:08:05.902Z,7.90
2023-03-28T03:10:32.705Z,8.35
2023-03-28T03:12:59.650Z,7.78
2023-03-28T03:15:30.950Z,8.20
2023-03-28T03:18:02.488Z,8.48
2023-03-28T03:20:33.642Z,8.50
2023-03-28T03:23:01.605Z,8.57
2023-03-28T03:25:31.379Z,7.70
2023-03-28T03:27:58.197Z,7.67
2023-03-28T03:30:25.512Z,8.13
2023-03-28T03:32:52.396Z,8.43
2023-03-28T03:35:20.230Z,8.32
2023-03-28T03:37:47.140Z,9.25
2023-03-28T03:40:14.035Z,8.50
2023-03-28T03:42:41.279Z,8.55
2023-03-28T03:45:09.788Z,8.60
2023-03-28T03:47:36.941Z,8.07
2023-03-28T03:50:04.209Z,8.55
2023-03-28T03:52:30.891Z,9.70
2023-03-28T03:54:57.986Z,8.93
2023-03-28T03:57:24.740Z,10.88
2023-03-28T03:59:52.255Z,9.95
2023-03-28T04:02:19.301Z,8.98
2023-03-28T04:04:47.836Z,8.32
2023-03-28T04:07:15.508Z,9.27
2023-03-28T04:09:43.769Z,7.75
2023-03-28T04:12:12.108Z,8.07
2023-03-28T04:14:38.979Z,7.90
2023-03-28T04:17:06.855Z,8.60
2023-03-28T04:19:33.706Z,8.40
2023-03-28T04:22:00.493Z,8.63
2023-03-28T04:24:27.271Z,7.57
2023-03-28T04:26:56.129Z,8.95
2023-03-28T04:29:32.617Z,7.38
2023-03-28T04:31:59.600Z,8.80
2023-03-28T04:34:30.071Z,8.00
2023-03-28T04:37:03.819Z,8.80
2023-03-28T04:39:32.863Z,9.27
2023-03-28T04:42:04.081Z,9.45
2023-03-28T04:44:31.634Z,9.77
2023-03-28T04:46:59.732Z,9.57
2023-03-28T04:49:27.820Z,10.70
2023-03-28T04:51:54.727Z,10.80
2023-03-28T04:54:21.482Z,9.50
2023-03-28T04:56:48.334Z,12.10
2023-03-28T04:59:16.093Z,10.05
2023-03-28T05:01:48.957Z,10.20
2023-03-28T05:04:17.795Z,9.73
2023-03-28T05:06:46.584Z,10.60
2023-03-28T05:09:14.401Z,10.70
2023-03-28T05:11:41.277Z,11.82
2023-03-28T05:14:08.325Z,12.00
2023-03-28T05:16:35.842Z,12.48
2023-03-28T05:19:02.852Z,13.82
2023-03-28T05:21:29.623Z,13.73
2023-03-28T05:23:58.450Z,14.85
2023-03-28T05:26:25.711Z,13.73
2023-03-28T05:28:54.528Z,13.38
2023-03-28T05:31:21.512Z,13.68
2023-03-28T05:33:48.238Z,13.98
2023-03-28T05:36:15.103Z,14.45
2023-03-28T05:38:42.226Z,14.50
2023-03-28T05:41:08.967Z,12.90
2023-03-28T05:43:35.737Z,12.80
2023-03-28T05:46:02.536Z,13.13
2023-03-28T05:48:29.307Z,11.95
2023-03-28T05:50:56.470Z,10.43
2023-03-28T05:53:23.257Z,9.77
2023-03-28T05:55:51.189Z,10.98
2023-03-28T05:58:17.875Z,11.73
2023-03-28T06:00:44.701Z,10.70
2023-03-28T06:03:16.385Z,11.00
2023-03-28T06:05:43.948Z,12.90
2023-03-28T06:08:10.917Z,14.55
2023-03-28T06:10:40.697Z,14.05
2023-03-28T06:13:07.437Z,14.40
2023-03-28T06:15:34.139Z,16.08
2023-03-28T06:18:00.943Z,15.48
2023-03-28T06:20:27.921Z,15.50
2023-03-28T06:22:54.763Z,16.48
2023-03-28T06:25:21.809Z,14.30
2023-03-28T06:27:49.485Z,15.60
2023-03-28T06:30:16.328Z,13.68
2023-03-28T06:32:43.093Z,13.25
2023-03-28T06:35:10.095Z,13.80
2023-03-28T06:37:36.852Z,12.00
2023-03-28T06:40:03.853Z,13.40
2023-03-28T06:42:30.847Z,13.07
2023-03-28T06:44:57.751Z,11.95
2023-03-28T06:47:24.551Z,11.75
2023-03-28T06:49:51.271Z,12.82
2023-03-28T06:52:18.156Z,11.55
2023-03-28T06:54:47.200Z,11.63
2023-03-28T06:57:15.923Z,12.38
2023-03-28T06:59:42.784Z,12.50
2023-03-28T07:02:12.468Z,11.85
2023-03-28T07:04:39.425Z,11.73
2023-03-28T07:07:09.275Z,10.85
2023-03-28T07:09:37.098Z,9.57
2023-03-28T07:12:04.667Z,9.68
2023-03-28T07:14:31.530Z,9.60
2023-03-28T07:16:58.387Z,9.52
2023-03-28T07:19:25.333Z,9.05
2023-03-28T07:21:53.139Z,9.35
2023-03-28T07:24:20.195Z,9.57
2023-03-28T07:26:47.112Z,8.48
2023-03-28T07:29:13.853Z,8.30
2023-03-28T07:31:41.237Z,9.05
2023-03-28T07:34:08.264Z,9.25
2023-03-28T07:36:38.093Z,10.18
2023-03-28T07:39:05.158Z,9.65
2023-03-28T07:41:32.155Z,10.85
2023-03-28T07:43:58.981Z,9.63
2023-03-28T07:46:25.795Z,9.60
2023-03-28T07:48:52.606Z,8.23
2023-03-28T07:51:19.556Z,8.88
2023-03-28T07:53:46.290Z,9.93
2023-03-28T07:56:13.302Z,10.98
2023-03-28T07:58:41.025Z,8.60
2023-03-28T08:01:09.511Z,7.75
2023-03-28T08:03:36.621Z,6.93
2023-03-28T08:06:13.371Z,6.25
2023-03-28T08:08:43.727Z,7.18
2023-03-28T08:11:13.640Z,6.00
2023-03-28T08:13:40.517Z,6.35
2023-03-28T08:16:08.328Z,4.63
2023-03-28T08:18:35.253Z,5.50
2023-03-28T08:21:03.551Z,4.97
2023-03-28T08:23:30.784Z,4.72
2023-03-28T08:26:04.620Z,4.88
2023-03-28T08:28:36.116Z,4.63
2023-03-28T08:31:14.636Z,3.97
2023-03-28T08:33:42.739Z,4.22
2023-03-28T08:36:14.476Z,4.72
2023-03-28T08:38:45.922Z,5.35
2023-03-28T08:41:30.992Z,4.45
2023-03-28T08:44:28.699Z,5.20
2023-03-28T08:47:02.001Z,5.25
2023-03-28T08:49:30.728Z,5.38
2023-03-28T08:52:00.787Z,5.63
2023-03-28T08:54:31.477Z,5.70
2023-03-28T08:59:52.007Z,5.82
2023-03-28T09:02:26.629Z,5.65
2023-03-28T09:04:58.018Z,5.95
2023-03-28T09:07:56.622Z,5.65
2023-03-28T09:10:38.372Z,6.28
2023-03-28T09:13:27.007Z,6.75
2023-03-28T09:16:21.341Z,6.72
2023-03-28T09:19:01.750Z,6.80
2023-03-28T09:21:38.592Z,7.03
2023-03-28T09:24:20.357Z,6.75
2023-03-28T09:26:55.029Z,7.10
2023-03-28T09:29:25.979Z,6.95
2023-03-28T09:32:01.780Z,6.15
2023-03-28T09:34:36.362Z,6.50
2023-03-28T09:37:31.900Z,5.63
2023-03-28T09:40:20.176Z,6.55
2023-03-28T09:43:10.791Z,5.97
2023-03-28T09:46:02.908Z,5.28
2023-03-28T09:48:35.604Z,5.15
2023-03-28T09:51:04.776Z,5.07
2023-03-28T09:53:36.631Z,5.10
2023-03-28T09:56:21.733Z,4.85
2023-03-28T09:58:56.963Z,4.38
2023-03-28T10:01:43.933Z,3.95
2023-03-28T10:04:15.346Z,3.95
2023-03-28T10:06:43.409Z,3.33
2023-03-28T10:09:18.183Z,3.80
2023-03-28T10:12:09.921Z,3.67
2023-03-28T10:14:37.897Z,4.30
2023-03-28T10:17:12.251Z,3.75
2023-03-28T10:19:42.011Z,5.43
2023-03-28T10:22:12.701Z,5.43
2023-03-28T10:27:24.032Z,5.50
2023-03-28T10:29:56.478Z,5.47
2023-03-28T10:32:28.259Z,6.05
2023-03-28T10:35:00.653Z,6.07
2023-03-28T10:37:29.564Z,5.88
2023-03-28T10:40:01.123Z,6.78
2023-03-28T10:42:28.254Z,7.50
2023-03-28T10:45:02.046Z,8.38
2023-03-28T10:47:30.285Z,6.30
2023-03-28T10:49:57.550Z,6.05
2023-03-28T10:52:24.770Z,5.25
2023-03-28T10:54:57.595Z,5.47
2023-03-28T10:57:27.760Z,4.80
2023-03-28T11:00:06.737Z,4.65
2023-03-28T11:02:52.932Z,4.93
2023-03-28T11:05:40.518Z,4.63
2023-03-28T11:08:15.031Z,4.70
2023-03-28T11:10:53.538Z,4.80
2023-03-28T11:13:40.956Z,4.60
2023-03-28T11:16:25.310Z,4.53
2023-03-28T11:19:15.657Z,5.57
2023-03-28T11:21:54.737Z,4.13
2023-03-28T11:24:27.966Z,3.85
2023-03-28T11:27:12.684Z,3.83
2023-03-28T11:29:46.763Z,4.55
2023-03-28T11:32:17.564Z,3.20
2023-03-28T11:34:48.083Z,2.58
2023-03-28T11:37:22.771Z,3.13
2023-03-28T11:39:59.545Z,3.58
2023-03-28T11:42:37.821Z,3.55
2023-03-28T11:45:08.249Z,3.55
2023-03-28T11:47:41.195Z,3.15
2023-03-28T11:50:15.116Z,3.58
2023-03-28T11:52:46.436Z,3.38
2023-03-28T11:55:20.596Z,3.80
2023-03-28T11:57:51.498Z,2.70
2023-03-28T12:03:00.028Z,2.70
2023-03-28T12:05:32.830Z,2.83
2023-03-28T12:08:04.591Z,2.85
2023-03-28T12:10:36.275Z,2.95
2023-03-28T12:13:11.704Z,3.10
2023-03-28T12:15:48.847Z,2.55
2023-03-28T12:18:20.326Z,3.33
2023-03-28T12:21:00.605Z,2.45
2023-03-28T12:23:54.149Z,3.38
2023-03-28T12:26:28.701Z,2.30
2023-03-28T12:28:58.160Z,4.18
2023-03-28T12:31:26.625Z,2.88
2023-03-28T12:34:09.022Z,4.70
2023-03-28T12:36:51.909Z,2.72
2023-03-28T12:39:19.541Z,2.85
2023-03-28T12:41:46.869Z,2.97
2023-03-28T12:44:29.344Z,3.10
2023-03-28T12:46:58.871Z,3.55
2023-03-28T12:49:29.102Z,2.70
2023-03-28T12:51:58.102Z,2.17
2023-03-28T12:54:29.781Z,2.17
2023-03-28T12:57:01.996Z,2.85
2023-03-28T12:59:41.345Z,2.72
2023-03-28T13:02:24.389Z,3.15
2023-03-28T13:04:54.586Z,2.22
2023-03-28T13:07:29.648Z,3.03
2023-03-28T13:10:00.397Z,2.50
2023-03-28T13:12:30.773Z,2.72
2023-03-28T13:14:59.703Z,2.50
2023-03-28T13:17:28.232Z,2.50
2023-03-28T13:20:01.258Z,2.08
2023-03-28T13:22:30.638Z,2.78
2023-03-28T13:25:21.090Z,2.58
2023-03-28T13:27:49.130Z,2.42
2023-03-28T13:30:20.817Z,2.53
2023-03-28T13:32:52.761Z,2.38
2023-03-28T13:35:38.695Z,2.70
2023-03-28T13:38:24.300Z,2.92
2023-03-28T13:40:55.843Z,2.90
2023-03-28T13:43:22.990Z,2.92
2023-03-28T13:45:50.764Z,2.90
2023-03-28T13:48:18.151Z,2.70
2023-03-28T13:50:46.309Z,2.95
2023-03-28T13:53:13.409Z,3.22
2023-03-28T13:55:43.087Z,2.53
2023-03-28T13:58:13.224Z,2.63
2023-03-28T14:00:41.010Z,3.20
2023-03-28T14:03:14.145Z,2.88
2023-03-28T14:05:45.681Z,3.45
2023-03-28T14:08:15.728Z,3.55
2023-03-28T14:10:43.914Z,4.45
2023-03-28T14:13:16.524Z,3.63
2023-03-28T14:15:44.203Z,3.65
2023-03-28T14:18:37.333Z,3.30
2023-03-28T14:21:07.704Z,3.70
2023-03-28T14:23:38.290Z,3.70
2023-03-28T14:28:41.103Z,4.50
2023-03-28T14:31:12.869Z,5.68
2023-03-28T14:33:42.456Z,4.65
2023-03-28T14:36:14.837Z,4.25
2023-03-28T14:38:42.820Z,4.40
2023-03-28T14:41:15.675Z,3.60
2023-03-28T14:43:42.937Z,3.85
2023-03-28T14:46:11.507Z,3.20
2023-03-28T14:48:39.856Z,3.65
2023-03-28T14:51:07.940Z,3.40
2023-03-28T14:53:36.823Z,3.05
2023-03-28T14:56:12.710Z,4.72
2023-03-28T14:58:41.232Z,3.33
2023-03-28T15:01:09.245Z,3.30
2023-03-28T15:03:39.155Z,3.08
2023-03-28T15:06:09.441Z,2.90
2023-03-28T15:08:38.387Z,3.95
2023-03-28T15:11:14.161Z,3.42
2023-03-28T15:13:42.304Z,3.80
2023-03-28T15:16:16.832Z,4.65
2023-03-28T15:18:47.243Z,4.10
2023-03-28T15:21:15.235Z,3.17
2023-03-28T15:23:50.247Z,3.65
2023-03-28T15:26:26.414Z,3.42
2023-03-28T15:28:55.053Z,4.47
2023-03-28T15:31:22.608Z,4.65
2023-03-28T15:33:51.332Z,6.60
2023-03-28T15:36:20.327Z,6.88
2023-03-28T15:38:50.395Z,6.63
2023-03-28T15:41:28.877Z,6.97
2023-03-28T15:43:56.059Z,7.43
2023-03-28T15:46:29.335Z,7.15
2023-03-28T15:49:03.653Z,5.90
2023-03-28T15:51:31.334Z,4.97
2023-03-28T15:54:00.112Z,5.88
2023-03-28T15:56:31.073Z,5.30
2023-03-28T15:59:06.405Z,6.82
2023-03-28T16:01:34.405Z,6.25
2023-03-28T16:04:20.750Z,6.72
2023-03-28T16:06:48.126Z,7.00
2023-03-28T16:09:15.962Z,7.88
2023-03-28T16:11:43.712Z,6.93
2023-03-28T16:14:14.552Z,8.38
2023-03-28T16:16:41.994Z,10.75
2023-03-28T16:19:21.171Z,8.38
2023-03-28T16:21:48.883Z,7.68
2023-03-28T16:24:16.312Z,6.32
2023-03-28T16:26:43.307Z,6.88
2023-03-28T16:29:11.441Z,8.18
2023-03-28T16:31:39.134Z,8.57
2023-03-28T16:34:08.515Z,7.57
2023-03-28T16:36:36.611Z,6.85
2023-03-28T16:39:05.333Z,8.57
2023-03-28T16:41:32.493Z,7.43
2023-03-28T16:43:59.797Z,7.00
2023-03-28T16:46:26.730Z,7.60
2023-03-28T16:48:53.483Z,6.90
2023-03-28T16:51:20.585Z,6.65
2023-03-28T16:53:48.651Z,4.82
2023-03-28T16:56:15.641Z,4.68
2023-03-28T16:58:43.054Z,4.18
2023-03-28T17:01:15.588Z,4.00
2023-03-28T17:03:42.465Z,5.65
2023-03-28T17:06:11.429Z,6.20
2023-03-28T17:08:38.827Z,28.50
2023-03-28T17:11:09.155Z,7.55
2023-03-28T17:13:37.695Z,8.60
2023-03-28T17:16:06.331Z,10.90
2023-03-28T17:18:33.164Z,7.82
2023-03-28T17:21:04.829Z,6.57
2023-03-28T17:23:32.879Z,13.07
2023-03-28T17:26:00.777Z,16.15
2023-03-28T17:28:28.948Z,13.57
2023-03-28T17:30:56.226Z,11.13
2023-03-28T17:33:23.607Z,17.05
2023-03-28T17:35:50.785Z,18.88
2023-03-28T17:38:18.691Z,18.60
2023-03-28T17:40:49.556Z,12.88
2023-03-28T17:43:16.646Z,24.08
2023-03-28T17:45:44.257Z,23.83
2023-03-28T17:48:12.610Z,22.33
2023-03-28T17:50:39.453Z,13.55
2023-03-28T17:53:07.729Z,13.55
2023-03-28T17:55:34.733Z,10.35
2023-03-28T17:58:02.161Z,9.00
2023-03-28T18:00:31.304Z,11.00
2023-03-28T18:02:58.326Z,7.63
2023-03-28T18:05:25.382Z,10.73
2023-03-28T18:07:52.193Z,10.70
2023-03-28T18:10:19.011Z,7.80
2023-03-28T18:12:45.878Z,9.38
2023-03-28T18:15:13.177Z,14.68
2023-03-28T18:17:40.263Z,11.60
2023-03-28T18:20:08.765Z,7.57
2023-03-28T18:22:36.893Z,7.18
2023-03-28T18:25:05.077Z,8.70
2023-03-28T18:27:32.429Z,6.55
2023-03-28T18:30:01.330Z,8.32
2023-03-28T18:32:28.182Z,8.98
2023-03-28T18:34:55.186Z,9.85
2023-03-28T18:37:22.096Z,7.10
2023-03-28T18:39:49.003Z,11.18
2023-03-28T18:42:18.486Z,7.38
2023-03-28T18:44:45.181Z,9.35
2023-03-28T18:47:12.826Z,11.23
2023-03-28T18:49:40.978Z,10.48
2023-03-28T18:52:10.596Z,9.82
2023-03-28T18:54:39.100Z,7.53
2023-03-28T18:57:07.140Z,10.95
2023-03-28T18:59:34.189Z,10.80
2023-03-28T19:02:01.351Z,9.43
2023-03-28T19:04:28.444Z,8.52
2023-03-28T19:06:55.289Z,9.25
2023-03-28T19:09:22.282Z,9.30
2023-03-28T19:11:53.037Z,9.75
2023-03-28T19:14:19.877Z,9.32
2023-03-28T19:16:47.049Z,11.32
2023-03-28T19:19:14.117Z,15.38
2023-03-28T19:21:40.797Z,10.38
2023-03-28T19:24:07.922Z,7.38
2023-03-28T19:26:34.889Z,8.98
2023-03-28T19:29:01.643Z,8.50
2023-03-28T19:31:28.317Z,8.48
2023-03-28T19:33:55.173Z,8.27
2023-03-28T19:36:22.135Z,9.32
2023-03-28T19:38:48.925Z,7.72
2023-03-28T19:41:24.421Z,8.52
2023-03-28T19:43:52.420Z,7.63
2023-03-28T19:46:23.847Z,7.32
2023-03-28T19:48:52.913Z,8.48
2023-03-28T19:51:19.655Z,7.95
2023-03-28T19:53:46.506Z,7.53
2023-03-28T19:56:14.403Z,8.07
2023-03-28T19:58:41.809Z,8.98
2023-03-28T20:01:08.618Z,8.65
2023-03-28T20:03:36.388Z,8.60
2023-03-28T20:06:09.013Z,7.13
2023-03-28T20:08:35.864Z,7.40
2023-03-28T20:11:03.787Z,10.75
2023-03-28T20:13:31.077Z,11.13
2023-03-28T20:16:02.181Z,10.75
2023-03-28T20:18:29.031Z,13.10
2023-03-28T20:20:57.945Z,11.63
2023-03-28T20:23:26.320Z,12.07
2023-03-28T20:25:55.390Z,10.65
2023-03-28T20:28:24.757Z,10.90
2023-03-28T20:30:55.184Z,10.02
2023-03-28T20:33:22.283Z,10.68
2023-03-28T20:36:00.448Z,10.48
2023-03-28T20:38:27.844Z,9.63
2023-03-28T20:40:54.634Z,8.43
2023-03-28T20:43:21.474Z,8.57
2023-03-28T20:45:53.900Z,10.07
2023-03-28T20:48:36.012Z,12.02
2023-03-28T20:51:14.337Z,9.05
2023-03-28T20:53:43.787Z,10.50
2023-03-28T20:56:12.001Z,9.52
2023-03-28T20:58:39.569Z,8.40
2023-03-28T21:01:09.091Z,8.50
2023-03-28T21:03:51.158Z,9.25
2023-03-28T21:06:24.860Z,7.38
2023-03-28T21:08:54.595Z,8.90
2023-03-28T21:11:26.839Z,8.47
2023-03-28T21:13:54.800Z,8.35
2023-03-28T21:16:23.434Z,8.30
2023-03-28T21:18:50.605Z,8.30
2023-03-28T21:21:19.389Z,7.38
2023-03-28T21:23:46.859Z,9.32
2023-03-28T21:26:19.334Z,8.18
2023-03-28T21:28:46.816Z,7.28
2023-03-28T21:31:16.144Z,7.18
2023-03-28T21:33:43.109Z,8.25
2023-03-28T21:36:12.439Z,7.20
2023-03-28T21:38:39.996Z,7.55
2023-03-28T21:41:07.507Z,8.13
2023-03-28T21:43:35.271Z,6.63
2023-03-28T21:46:03.215Z,8.48
2023-03-28T21:48:31.158Z,6.70
2023-03-28T21:50:59.895Z,6.35
2023-03-28T21:53:28.832Z,6.13
2023-03-28T21:55:56.366Z,5.80
2023-03-28T21:58:24.354Z,6.25
2023-03-28T22:00:51.106Z,6.20
2023-03-28T22:03:18.481Z,5.57
2023-03-28T22:05:46.323Z,5.72
2023-03-28T22:08:17.014Z,6.05
2023-03-28T22:10:47.784Z,5.97
2023-03-28T22:13:15.095Z,6.03
2023-03-28T22:15:42.079Z,5.30
2023-03-28T22:18:09.472Z,5.35
2023-03-28T22:20:38.087Z,5.43
2023-03-28T22:23:06.138Z,5.90
2023-03-28T22:25:38.223Z,5.28
2023-03-28T22:28:10.236Z,5.97
2023-03-28T22:30:39.139Z,5.55
2023-03-28T22:33:07.036Z,5.90
2023-03-28T22:35:34.066Z,5.43
2023-03-28T22:38:01.881Z,5.43
2023-03-28T22:40:29.999Z,5.40
2023-03-28T22:42:56.924Z,5.60
2023-03-28T22:45:26.518Z,5.70
2023-03-28T22:47:53.679Z,5.53
2023-03-28T22:50:22.116Z,5.78
2023-03-28T22:52:53.008Z,5.60
2023-03-28T22:55:22.447Z,5.72
2023-03-28T22:57:53.108Z,5.63
2023-03-28T23:00:23.661Z,5.13
2023-03-28T23:05:20.253Z,7.20
2023-03-28T23:07:47.572Z,6.20
2023-03-28T23:10:19.094Z,6.13
2023-03-28T23:12:46.065Z,5.25
2023-03-28T23:15:13.513Z,5.82
2023-03-28T23:17:40.505Z,5.97
2023-03-28T23:20:12.749Z,5.43
2023-03-28T23:22:42.790Z,4.47
2023-03-28T23:25:12.381Z,5.57
2023-03-28T23:27:40.668Z,5.00
2023-03-28T23:30:11.500Z,5.35
2023-03-28T23:32:38.239Z,5.05
2023-03-28T23:35:06.012Z,5.30
2023-03-28T23:37:38.315Z,5.30
2023-03-28T23:40:10.705Z,4.85
2023-03-28T23:42:39.028Z,6.53
2023-03-28T23:45:06.880Z,5.22
2023-03-28T23:47:33.966Z,5.13
2023-03-28T23:50:02.098Z,5.85
2023-03-28T23:52:28.831Z,6.30
2023-03-28T23:54:55.953Z,5.45
2023-03-28T23:57:25.258Z,5.18
2023-03-28T23:59:52.365Z,5.30
